createdAt,value
2023-11-30T00:01:26.415Z,4.13
2023-11-30T00:03:57.863Z,3.92
2023-11-30T00:06:29.288Z,4.47
2023-11-30T00:08:58.607Z,4.60
2023-11-30T00:11:27.592Z,4.28
2023-11-30T00:14:01.721Z,4.03
2023-11-30T00:16:28.332Z,4.15
2023-11-30T00:18:57.212Z,3.95
2023-11-30T00:21:23.836Z,3.75
2023-11-30T00:23:50.456Z,3.97
2023-11-30T00:26:17.039Z,4.30
2023-11-30T00:28:45.875Z,4.85
2023-11-30T00:31:14.723Z,4.18
2023-11-30T00:33:41.323Z,4.00
2023-11-30T00:36:11.243Z,4.55
2023-11-30T00:38:37.772Z,4.55
2023-11-30T00:41:06.564Z,4.10
2023-11-30T00:43:33.118Z,4.28
2023-11-30T00:46:06.810Z,4.20
2023-11-30T00:48:36.406Z,4.47
2023-11-30T00:51:03.609Z,3.60
2023-11-30T00:53:32.710Z,4.43
2023-11-30T00:56:01.677Z,5.30
2023-11-30T00:58:29.857Z,4.63
2023-11-30T01:00:59.673Z,4.82
2023-11-30T01:03:26.371Z,4.95
2023-11-30T01:05:52.945Z,4.57
2023-11-30T01:08:21.959Z,4.78
2023-11-30T01:10:51.026Z,4.05
2023-11-30T01:13:17.617Z,4.15
2023-11-30T01:15:44.287Z,4.75
2023-11-30T01:18:11.510Z,4.78
2023-11-30T01:20:38.116Z,4.53
2023-11-30T01:23:05.665Z,4.20
2023-11-30T01:25:35.472Z,4.40
2023-11-30T01:28:02.018Z,4.10
2023-11-30T01:30:28.560Z,4.60
2023-11-30T01:32:55.279Z,5.13
2023-11-30T01:35:21.955Z,5.05
2023-11-30T01:37:48.465Z,4.65
2023-11-30T01:40:19.894Z,4.90
2023-11-30T01:42:46.390Z,5.45
2023-11-30T01:45:15.687Z,4.28
2023-11-30T01:47:44.543Z,5.45
2023-11-30T01:50:11.720Z,5.22
2023-11-30T01:52:38.633Z,4.20
2023-11-30T01:55:06.170Z,4.63
2023-11-30T01:57:32.858Z,5.00
2023-11-30T02:00:01.974Z,4.63
2023-11-30T02:02:29.884Z,4.80
2023-11-30T02:04:56.399Z,4.97
2023-11-30T02:07:25.266Z,5.20
2023-11-30T02:09:51.868Z,4.70
2023-11-30T02:12:20.916Z,5.40
2023-11-30T02:14:50.060Z,4.75
2023-11-30T02:17:16.989Z,4.97
2023-11-30T02:19:43.646Z,4.68
2023-11-30T02:22:12.465Z,5.53
2023-11-30T02:24:39.001Z,5.63
2023-11-30T02:27:05.699Z,6.68
2023-11-30T02:29:32.269Z,5.15
2023-11-30T02:32:01.183Z,5.80
2023-11-30T02:34:30.193Z,5.55
2023-11-30T02:36:56.795Z,5.13
2023-11-30T02:39:23.354Z,5.13
2023-11-30T02:41:54.953Z,4.97
2023-11-30T02:44:21.522Z,5.03
2023-11-30T02:46:50.492Z,5.00
2023-11-30T02:49:17.925Z,4.65
2023-11-30T02:51:46.794Z,5.30
2023-11-30T02:54:13.445Z,6.47
2023-11-30T02:56:41.299Z,5.68
2023-11-30T02:59:07.816Z,5.35
2023-11-30T03:01:34.509Z,6.05
2023-11-30T03:04:03.450Z,5.38
2023-11-30T03:06:35.234Z,5.03
2023-11-30T03:09:01.882Z,5.68
2023-11-30T03:11:28.436Z,5.70
2023-11-30T03:13:54.975Z,6.55
2023-11-30T03:16:28.692Z,6.07
2023-11-30T03:19:10.188Z,5.60
2023-11-30T03:21:44.988Z,5.20
2023-11-30T03:24:12.331Z,5.93
2023-11-30T03:26:38.947Z,6.10
2023-11-30T03:29:08.023Z,7.03
2023-11-30T03:31:40.360Z,5.95
2023-11-30T03:34:09.973Z,5.40
2023-11-30T03:36:36.742Z,6.47
2023-11-30T03:39:03.868Z,7.15
2023-11-30T03:41:32.773Z,6.25
2023-11-30T03:43:59.387Z,7.20
2023-11-30T03:46:26.121Z,7.22
2023-11-30T03:48:56.005Z,7.45
2023-11-30T03:51:22.932Z,7.47
2023-11-30T03:53:49.530Z,6.75
2023-11-30T03:56:20.950Z,6.43
2023-11-30T03:58:49.936Z,6.90
2023-11-30T04:01:23.957Z,7.47
2023-11-30T04:03:53.164Z,7.22
2023-11-30T04:06:25.438Z,8.55
2023-11-30T04:08:53.232Z,7.00
2023-11-30T04:11:22.352Z,7.45
2023-11-30T04:13:49.172Z,6.85
2023-11-30T04:16:18.982Z,6.45
2023-11-30T04:18:48.114Z,7.10
2023-11-30T04:21:17.118Z,7.68
2023-11-30T04:23:43.663Z,7.00
2023-11-30T04:26:11.046Z,6.85
2023-11-30T04:28:40.157Z,7.30
2023-11-30T04:31:07.447Z,6.55
2023-11-30T04:33:34.365Z,5.95
2023-11-30T04:36:00.945Z,7.45
2023-11-30T04:38:30.643Z,6.80
2023-11-30T04:40:57.282Z,7.07
2023-11-30T04:43:26.882Z,7.70
2023-11-30T04:45:54.055Z,7.28
2023-11-30T04:48:20.967Z,7.00
2023-11-30T04:50:50.053Z,7.57
2023-11-30T04:53:16.620Z,7.25
2023-11-30T04:55:48.052Z,6.82
2023-11-30T04:58:15.255Z,6.22
2023-11-30T05:00:43.258Z,6.82
2023-11-30T05:03:10.054Z,7.50
2023-11-30T05:05:39.013Z,8.38
2023-11-30T05:08:05.528Z,6.32
2023-11-30T05:10:34.658Z,6.50
2023-11-30T05:13:01.392Z,6.68
2023-11-30T05:15:31.166Z,6.55
2023-11-30T05:17:57.831Z,6.57
2023-11-30T05:20:24.348Z,6.13
2023-11-30T05:22:50.926Z,7.70
2023-11-30T05:25:17.666Z,7.05
2023-11-30T05:27:44.216Z,7.50
2023-11-30T05:30:11.049Z,7.18
2023-11-30T05:32:40.204Z,6.28
2023-11-30T05:35:09.532Z,6.43
2023-11-30T05:37:36.125Z,6.53
2023-11-30T05:40:02.686Z,5.90
2023-11-30T05:42:29.442Z,6.93
2023-11-30T05:44:56.192Z,6.05
2023-11-30T05:47:24.241Z,6.03
2023-11-30T05:49:51.627Z,6.07
2023-11-30T05:52:18.264Z,6.70
2023-11-30T05:54:44.778Z,6.28
2023-11-30T05:57:11.391Z,6.65
2023-11-30T05:59:40.347Z,6.25
2023-11-30T06:02:12.172Z,5.70
2023-11-30T06:04:39.853Z,6.53
2023-11-30T06:07:06.729Z,6.63
2023-11-30T06:09:33.222Z,6.35
2023-11-30T06:12:02.585Z,5.85
2023-11-30T06:14:31.478Z,6.57
2023-11-30T06:16:58.361Z,6.57
2023-11-30T06:19:25.374Z,5.97
2023-11-30T06:21:51.941Z,6.65
2023-11-30T06:24:20.532Z,6.10
2023-11-30T06:26:47.022Z,7.03
2023-11-30T06:29:17.117Z,5.85
2023-11-30T06:31:43.628Z,6.15
2023-11-30T06:34:15.093Z,6.65
2023-11-30T06:36:41.698Z,5.95
2023-11-30T06:39:10.553Z,6.30
2023-11-30T06:41:39.637Z,6.45
2023-11-30T06:44:08.429Z,6.53
2023-11-30T06:46:36.596Z,6.13
2023-11-30T06:49:05.672Z,7.10
2023-11-30T06:51:37.595Z,6.25
2023-11-30T06:54:04.531Z,5.50
2023-11-30T06:56:31.683Z,6.10
2023-11-30T06:58:59.127Z,6.10
2023-11-30T07:01:30.813Z,6.85
2023-11-30T07:03:59.953Z,5.60
2023-11-30T07:06:26.986Z,6.28
2023-11-30T07:08:58.521Z,7.53
2023-11-30T07:11:27.400Z,7.38
2023-11-30T07:13:54.580Z,7.05
2023-11-30T07:16:21.233Z,7.43
2023-11-30T07:18:50.980Z,7.65
2023-11-30T07:21:17.685Z,7.90
2023-11-30T07:23:44.684Z,7.25
2023-11-30T07:26:15.358Z,6.85
2023-11-30T07:28:43.073Z,7.43
2023-11-30T07:31:18.498Z,7.57
2023-11-30T07:33:45.146Z,7.10
2023-11-30T07:36:15.424Z,7.10
2023-11-30T07:38:42.003Z,8.75
2023-11-30T07:41:09.292Z,8.13
2023-11-30T07:43:36.574Z,7.63
2023-11-30T07:46:05.413Z,7.97
2023-11-30T07:48:34.025Z,7.50
2023-11-30T07:51:00.711Z,8.52
2023-11-30T07:53:27.367Z,7.72
2023-11-30T07:55:58.523Z,8.40
2023-11-30T07:58:27.504Z,8.93
2023-11-30T08:00:54.446Z,10.25
2023-11-30T08:03:23.872Z,7.88
2023-11-30T08:05:50.409Z,8.35
2023-11-30T08:08:20.283Z,8.85
2023-11-30T08:10:49.228Z,7.97
2023-11-30T08:13:18.741Z,8.02
2023-11-30T08:15:45.616Z,8.35
2023-11-30T08:18:15.450Z,8.50
2023-11-30T08:20:44.070Z,9.30
2023-11-30T08:23:13.236Z,8.93
2023-11-30T08:25:40.143Z,10.10
2023-11-30T08:28:09.598Z,9.80
2023-11-30T08:30:37.363Z,9.70
2023-11-30T08:33:07.038Z,9.25
2023-11-30T08:35:36.282Z,9.40
2023-11-30T08:38:02.940Z,8.93
2023-11-30T08:40:29.516Z,9.52
2023-11-30T08:42:56.048Z,9.77
2023-11-30T08:45:22.842Z,11.20
2023-11-30T08:47:49.484Z,10.10
2023-11-30T08:50:17.469Z,11.18
2023-11-30T08:52:48.889Z,10.88
2023-11-30T08:55:18.094Z,9.43
2023-11-30T08:57:49.934Z,9.55
2023-11-30T09:00:20.250Z,8.90
2023-11-30T09:02:47.228Z,9.10
2023-11-30T09:05:13.949Z,8.82
2023-11-30T09:07:43.562Z,9.13
2023-11-30T09:10:10.521Z,9.77
2023-11-30T09:12:37.598Z,10.10
2023-11-30T09:15:10.136Z,8.43
2023-11-30T09:17:37.201Z,11.43
2023-11-30T09:20:09.172Z,8.32
2023-11-30T09:22:36.340Z,7.38
2023-11-30T09:25:06.120Z,8.65
2023-11-30T09:27:33.346Z,15.98
2023-11-30T09:30:02.482Z,11.05
2023-11-30T09:32:29.092Z,13.23
2023-11-30T09:34:56.314Z,8.63
2023-11-30T09:37:22.886Z,7.45
2023-11-30T09:39:52.325Z,7.55
2023-11-30T09:42:19.819Z,7.53
2023-11-30T09:44:46.794Z,7.60
2023-11-30T09:47:18.138Z,7.85
2023-11-30T09:49:44.848Z,8.05
2023-11-30T09:52:11.878Z,7.97
2023-11-30T09:54:41.112Z,7.80
2023-11-30T09:57:11.001Z,7.07
2023-11-30T09:59:40.092Z,8.60
2023-11-30T10:02:10.818Z,7.22
2023-11-30T10:04:40.754Z,10.07
2023-11-30T10:07:08.585Z,9.32
2023-11-30T10:09:37.105Z,7.38
2023-11-30T10:12:05.014Z,6.78
2023-11-30T10:14:34.328Z,6.13
2023-11-30T10:17:03.953Z,8.48
2023-11-30T10:19:31.797Z,12.70
2023-11-30T10:22:01.434Z,7.43
2023-11-30T10:24:31.588Z,8.80
2023-11-30T10:27:09.832Z,8.75
2023-11-30T10:29:43.140Z,7.30
2023-11-30T10:32:16.518Z,8.00
2023-11-30T10:34:58.185Z,7.55
2023-11-30T10:37:27.704Z,7.75
2023-11-30T10:40:04.924Z,7.57
2023-11-30T10:42:34.400Z,8.70
2023-11-30T10:45:12.593Z,9.15
2023-11-30T10:47:42.627Z,9.50
2023-11-30T10:50:10.888Z,9.80
2023-11-30T10:52:37.611Z,9.73
2023-11-30T10:55:13.503Z,15.63
2023-11-30T10:57:47.733Z,11.43
2023-11-30T11:00:16.357Z,9.38
2023-11-30T11:02:48.577Z,9.50
2023-11-30T11:05:19.627Z,7.78
2023-11-30T11:07:55.546Z,7.93
2023-11-30T11:10:28.088Z,7.85
2023-11-30T11:13:00.237Z,7.25
2023-11-30T11:15:29.904Z,7.32
2023-11-30T11:18:05.116Z,6.70
2023-11-30T11:20:36.629Z,8.05
2023-11-30T11:23:14.920Z,7.70
2023-11-30T11:25:47.763Z,8.48
2023-11-30T11:28:18.574Z,7.20
2023-11-30T11:30:54.741Z,7.53
2023-11-30T11:33:26.304Z,7.35
2023-11-30T11:35:55.460Z,8.40
2023-11-30T11:38:22.135Z,7.25
2023-11-30T11:40:51.314Z,7.75
2023-11-30T11:43:20.497Z,7.40
2023-11-30T11:45:49.537Z,7.53
2023-11-30T11:48:18.494Z,8.93
2023-11-30T11:50:56.202Z,7.28
2023-11-30T11:53:23.474Z,6.57
2023-11-30T11:55:50.058Z,6.82
2023-11-30T11:58:16.734Z,6.95
2023-11-30T12:00:56.526Z,6.82
2023-11-30T12:03:24.170Z,6.53
2023-11-30T12:08:36.325Z,6.70
2023-11-30T12:11:03.082Z,6.80
2023-11-30T12:13:30.564Z,6.20
2023-11-30T12:15:59.689Z,6.88
2023-11-30T12:18:26.835Z,6.22
2023-11-30T12:20:54.196Z,6.63
2023-11-30T12:23:20.781Z,6.78
2023-11-30T12:25:47.361Z,6.50
2023-11-30T12:28:17.347Z,5.75
2023-11-30T12:30:47.267Z,6.43
2023-11-30T12:33:15.665Z,6.97
2023-11-30T12:35:47.138Z,6.15
2023-11-30T12:38:17.224Z,6.68
2023-11-30T12:40:46.372Z,7.47
2023-11-30T12:43:13.003Z,7.05
2023-11-30T12:45:40.087Z,7.38
2023-11-30T12:48:06.809Z,7.47
2023-11-30T12:50:33.561Z,7.55
2023-11-30T12:53:00.267Z,7.28
2023-11-30T12:55:26.995Z,7.53
2023-11-30T12:57:57.175Z,7.82
2023-11-30T13:00:24.172Z,7.60
2023-11-30T13:02:51.047Z,6.85
2023-11-30T13:05:22.686Z,8.52
2023-11-30T13:07:51.109Z,7.35
2023-11-30T13:10:18.624Z,7.70
2023-11-30T13:12:48.929Z,7.47
2023-11-30T13:15:18.190Z,8.18
2023-11-30T13:17:47.057Z,9.50
2023-11-30T13:20:14.808Z,8.85
2023-11-30T13:25:12.552Z,7.88
2023-11-30T13:27:39.147Z,8.70
2023-11-30T13:30:06.257Z,7.95
2023-11-30T13:32:37.431Z,8.70
2023-11-30T13:35:06.472Z,8.80
2023-11-30T13:37:38.046Z,8.13
2023-11-30T13:40:08.389Z,8.75
2023-11-30T13:42:34.997Z,9.40
2023-11-30T13:45:02.475Z,8.15
2023-11-30T13:47:31.545Z,8.68
2023-11-30T13:50:00.427Z,8.35
2023-11-30T13:52:28.629Z,8.73
2023-11-30T13:54:55.315Z,8.77
2023-11-30T13:57:21.870Z,8.57
2023-11-30T13:59:48.434Z,9.05
2023-11-30T14:02:15.052Z,9.13
2023-11-30T14:04:43.868Z,8.27
2023-11-30T14:07:13.592Z,8.25
2023-11-30T14:09:42.716Z,8.40
2023-11-30T14:12:11.957Z,8.98
2023-11-30T14:14:39.944Z,8.98
2023-11-30T14:17:06.589Z,9.45
2023-11-30T14:19:34.916Z,8.75
2023-11-30T14:24:33.320Z,8.50
2023-11-30T14:27:02.540Z,7.63
2023-11-30T14:29:29.073Z,7.00
2023-11-30T14:31:55.708Z,8.88
2023-11-30T14:34:22.387Z,7.57
2023-11-30T14:36:49.073Z,8.60
2023-11-30T14:39:16.108Z,8.30
2023-11-30T14:41:42.853Z,8.38
2023-11-30T14:44:11.716Z,8.70
2023-11-30T14:46:38.367Z,8.10
2023-11-30T14:49:06.190Z,7.82
2023-11-30T14:51:32.806Z,8.38
2023-11-30T14:53:59.993Z,8.68
2023-11-30T14:56:26.637Z,8.45
2023-11-30T14:58:59.806Z,8.13
2023-11-30T15:01:26.494Z,8.30
2023-11-30T15:03:53.215Z,8.90
2023-11-30T15:06:19.890Z,8.18
2023-11-30T15:08:46.446Z,9.30
2023-11-30T15:11:13.052Z,8.55
2023-11-30T15:13:39.681Z,8.70
2023-11-30T15:16:06.686Z,8.82
2023-11-30T15:18:33.792Z,7.65
2023-11-30T15:21:03.359Z,7.82
2023-11-30T15:23:29.944Z,7.47
2023-11-30T15:25:56.914Z,8.27
2023-11-30T15:28:24.018Z,9.70
2023-11-30T15:30:55.414Z,9.55
2023-11-30T15:33:24.430Z,7.78
2023-11-30T15:35:51.124Z,7.55
2023-11-30T15:38:17.673Z,8.88
2023-11-30T15:40:44.223Z,8.95
2023-11-30T15:43:12.981Z,8.80
2023-11-30T15:45:39.632Z,8.50
2023-11-30T15:48:07.199Z,17.17
2023-11-30T15:50:33.974Z,8.50
2023-11-30T15:53:03.848Z,8.02
2023-11-30T15:55:30.491Z,7.60
2023-11-30T15:58:06.045Z,8.07
2023-11-30T16:00:35.906Z,7.75
2023-11-30T16:03:10.332Z,7.40
2023-11-30T16:05:37.660Z,8.20
2023-11-30T16:08:04.523Z,8.68
2023-11-30T16:10:33.374Z,7.40
2023-11-30T16:12:59.995Z,7.45
2023-11-30T16:15:27.383Z,8.00
2023-11-30T16:17:58.386Z,7.13
2023-11-30T16:20:25.562Z,7.40
2023-11-30T16:22:52.191Z,8.02
2023-11-30T16:25:18.838Z,9.48
2023-11-30T16:27:45.604Z,8.35
2023-11-30T16:30:16.008Z,8.68
2023-11-30T16:32:42.843Z,10.10
2023-11-30T16:35:09.637Z,9.43
2023-11-30T16:37:36.224Z,7.88
2023-11-30T16:40:05.887Z,9.45
2023-11-30T16:42:33.024Z,9.90
2023-11-30T16:45:02.728Z,8.43
2023-11-30T16:47:29.412Z,9.55
2023-11-30T16:49:58.646Z,13.02
2023-11-30T16:52:25.287Z,11.23
2023-11-30T16:54:51.980Z,9.60
2023-11-30T16:57:23.480Z,8.60
2023-11-30T16:59:52.427Z,8.60
2023-11-30T17:02:19.063Z,8.68
2023-11-30T17:04:45.689Z,7.97
2023-11-30T17:07:14.580Z,7.43
2023-11-30T17:09:47.674Z,8.40
2023-11-30T17:12:14.404Z,8.90
2023-11-30T17:14:43.587Z,7.45
2023-11-30T17:17:10.215Z,8.05
2023-11-30T17:19:39.179Z,7.28
2023-11-30T17:22:05.877Z,7.55
2023-11-30T17:24:34.542Z,9.15
2023-11-30T17:27:01.123Z,8.77
2023-11-30T17:29:27.697Z,8.35
2023-11-30T17:31:54.316Z,8.57
2023-11-30T17:34:23.290Z,8.00
2023-11-30T17:36:49.939Z,8.23
2023-11-30T17:39:18.781Z,7.90
2023-11-30T17:41:45.745Z,8.75
2023-11-30T17:44:14.890Z,8.40
2023-11-30T17:46:45.053Z,8.63
2023-11-30T17:49:12.444Z,9.52
2023-11-30T17:51:46.391Z,9.32
2023-11-30T17:54:12.939Z,9.48
2023-11-30T17:56:39.825Z,9.38
2023-11-30T17:59:06.452Z,10.77
2023-11-30T18:01:33.074Z,13.43
2023-11-30T18:03:59.695Z,10.27
2023-11-30T18:06:29.143Z,11.07
2023-11-30T18:08:55.987Z,10.27
2023-11-30T18:11:22.667Z,9.50
2023-11-30T18:13:49.479Z,11.00
2023-11-30T18:16:16.398Z,9.38
2023-11-30T18:18:45.786Z,9.80
2023-11-30T18:21:14.940Z,9.82
2023-11-30T18:23:41.638Z,9.85
2023-11-30T18:26:08.219Z,10.13
2023-11-30T18:28:34.824Z,9.35
2023-11-30T18:31:12.253Z,9.02
2023-11-30T18:33:49.402Z,8.52
2023-11-30T18:36:16.154Z,8.23
2023-11-30T18:38:51.360Z,8.82
2023-11-30T18:41:24.477Z,8.10
2023-11-30T18:43:53.561Z,8.98
2023-11-30T18:46:20.250Z,7.82
2023-11-30T18:48:47.054Z,8.77
2023-11-30T18:51:14.158Z,9.60
2023-11-30T18:53:43.062Z,9.30
2023-11-30T18:56:12.139Z,9.73
2023-11-30T18:58:39.675Z,8.85
2023-11-30T19:01:06.537Z,9.35
2023-11-30T19:03:33.251Z,10.48
2023-11-30T19:05:59.932Z,9.40
2023-11-30T19:08:26.713Z,9.88
2023-11-30T19:10:55.355Z,10.25
2023-11-30T19:13:21.887Z,10.18
2023-11-30T19:15:48.505Z,10.65
2023-11-30T19:18:19.768Z,9.20
2023-11-30T19:20:48.817Z,9.52
2023-11-30T19:23:17.786Z,10.90
2023-11-30T19:25:46.748Z,9.90
2023-11-30T19:28:13.363Z,9.90
2023-11-30T19:30:40.030Z,12.27
2023-11-30T19:33:06.733Z,10.80
2023-11-30T19:35:36.576Z,10.57
2023-11-30T19:38:03.168Z,9.95
2023-11-30T19:40:29.871Z,10.77
2023-11-30T19:42:58.914Z,10.98
2023-11-30T19:45:27.938Z,11.98
2023-11-30T19:47:55.136Z,9.63
2023-11-30T19:50:21.863Z,10.00
2023-11-30T19:52:48.776Z,10.88
2023-11-30T19:55:16.009Z,9.70
2023-11-30T19:57:45.315Z,10.30
2023-11-30T20:00:12.254Z,10.43
2023-11-30T20:02:39.031Z,10.98
2023-11-30T20:05:06.044Z,10.85
2023-11-30T20:07:35.021Z,10.88
2023-11-30T20:10:01.622Z,10.38
2023-11-30T20:12:29.079Z,11.25
2023-11-30T20:14:55.861Z,11.27
2023-11-30T20:17:22.452Z,10.27
2023-11-30T20:19:51.478Z,10.20
2023-11-30T20:22:21.216Z,8.98
2023-11-30T20:24:47.722Z,8.57
2023-11-30T20:27:14.340Z,7.97
2023-11-30T20:29:43.229Z,9.30
2023-11-30T20:32:12.307Z,8.63
2023-11-30T20:34:41.109Z,10.70
2023-11-30T20:37:07.814Z,9.52
2023-11-30T20:39:35.682Z,10.30
2023-11-30T20:42:04.137Z,8.18
2023-11-30T20:44:33.005Z,9.30
2023-11-30T20:47:00.527Z,8.40
2023-11-30T20:49:27.269Z,8.73
2023-11-30T20:51:54.018Z,9.27
2023-11-30T20:54:20.568Z,9.52
2023-11-30T20:56:48.650Z,8.73
2023-11-30T20:59:18.374Z,9.60
2023-11-30T21:01:45.270Z,9.75
2023-11-30T21:04:14.292Z,9.85
2023-11-30T21:06:40.947Z,8.98
2023-11-30T21:09:10.086Z,11.57
2023-11-30T21:11:41.752Z,8.25
2023-11-30T21:14:13.141Z,8.43
2023-11-30T21:16:39.772Z,8.98
2023-11-30T21:19:06.643Z,8.00
2023-11-30T21:21:38.071Z,7.80
2023-11-30T21:24:05.072Z,7.38
2023-11-30T21:26:31.749Z,6.90
2023-11-30T21:29:00.863Z,7.07
2023-11-30T21:31:30.044Z,7.22
2023-11-30T21:33:56.790Z,6.75
2023-11-30T21:36:25.851Z,7.38
2023-11-30T21:38:54.726Z,8.70
2023-11-30T21:41:21.541Z,6.85
2023-11-30T21:43:48.502Z,9.10
2023-11-30T21:46:18.010Z,8.32
2023-11-30T21:48:47.261Z,6.40
2023-11-30T21:51:13.880Z,7.13
2023-11-30T21:53:42.805Z,7.55
2023-11-30T21:56:12.816Z,7.65
2023-11-30T21:58:39.623Z,7.57
2023-11-30T22:01:06.900Z,8.05
2023-11-30T22:03:35.906Z,6.75
2023-11-30T22:06:04.912Z,6.72
2023-11-30T22:08:34.032Z,5.60
2023-11-30T22:11:00.568Z,5.70
2023-11-30T22:13:27.090Z,7.15
2023-11-30T22:15:59.814Z,5.55
2023-11-30T22:18:37.465Z,5.07
2023-11-30T22:21:04.626Z,5.15
2023-11-30T22:23:36.052Z,6.20
2023-11-30T22:26:05.248Z,5.65
2023-11-30T22:28:31.866Z,6.45
2023-11-30T22:30:59.746Z,5.85
2023-11-30T22:33:28.981Z,8.35
2023-11-30T22:35:55.655Z,6.30
2023-11-30T22:38:22.371Z,5.85
2023-11-30T22:40:53.772Z,7.18
2023-11-30T22:43:20.465Z,6.85
2023-11-30T22:45:47.048Z,5.28
2023-11-30T22:48:15.948Z,7.25
2023-11-30T22:50:42.612Z,5.55
2023-11-30T22:53:11.581Z,8.15
2023-11-30T22:55:39.883Z,11.13
2023-11-30T22:58:06.618Z,9.52
2023-11-30T23:00:35.678Z,8.25
2023-11-30T23:03:02.663Z,7.57
2023-11-30T23:05:29.381Z,7.00
2023-11-30T23:07:58.291Z,8.40
2023-11-30T23:10:24.822Z,8.32
2023-11-30T23:12:54.061Z,8.77
2023-11-30T23:15:20.629Z,8.43
2023-11-30T23:17:49.676Z,9.60
2023-11-30T23:20:16.338Z,9.68
2023-11-30T23:22:43.297Z,10.50
2023-11-30T23:25:10.402Z,8.38
2023-11-30T23:27:36.956Z,9.93
2023-11-30T23:30:05.996Z,8.90
2023-11-30T23:32:32.747Z,10.38
2023-11-30T23:34:59.420Z,9.52
2023-11-30T23:37:26.052Z,9.38
2023-11-30T23:39:55.093Z,9.48
2023-11-30T23:42:21.746Z,10.65
2023-11-30T23:44:48.701Z,11.60
2023-11-30T23:47:15.361Z,9.75
2023-11-30T23:49:42.214Z,10.50
2023-11-30T23:52:08.781Z,9.20
2023-11-30T23:54:37.807Z,9.95
2023-11-30T23:57:06.217Z,8.57
2023-11-30T23:59:35.123Z,8.30
